Time;durP1;ratioP1;P1;durP2;ratioP2;P2;SDS_P1;SDS_P2;PMS_P1;PMS_P2;Temp;Humidity;BMP_temperature;BMP_pressure;BME280_temperature;BME280_humidity;BME280_pressure;Samples;Min_cycle;Max_cycle;Signal;HPM_P1;HPM_P2
2024/04/05 00:02:06;;;;;;;3.17;1.63;;;;;;;13.09;100.00;96273.56;5023181;28;20212;-71
2024/04/05 00:04:33;;;;;;;2.23;1.50;;;;;;;13.18;100.00;96277.72;5019426;28;20201;-70
2024/04/05 00:06:58;;;;;;;1.83;1.30;;;;;;;13.16;100.00;96268.31;5017152;28;20593;-73
2024/04/05 00:09:26;;;;;;;1.93;1.40;;;;;;;13.26;100.00;96268.81;5015904;28;20607;-72
2024/04/05 00:11:52;;;;;;;1.87;1.30;;;;;;;13.06;100.00;96268.66;5020584;28;20221;-70
2024/04/05 00:14:18;;;;;;;1.77;1.30;;;;;;;13.10;100.00;96275.22;5017784;28;20210;-70
2024/04/05 00:16:44;;;;;;;2.10;1.23;;;;;;;13.02;100.00;96269.22;5017069;28;20197;-73
2024/04/05 00:19:10;;;;;;;2.40;1.30;;;;;;;13.15;100.00;96277.28;5016986;28;20225;-73
2024/04/05 00:21:37;;;;;;;1.77;1.27;;;;;;;13.06;100.00;96278.41;5016743;28;20202;-71
2024/04/05 00:24:03;;;;;;;4.10;1.47;;;;;;;13.12;100.00;96275.00;5017853;28;20449;-72
2024/04/05 00:26:30;;;;;;;2.00;1.30;;;;;;;13.33;100.00;96285.56;5018364;28;20205;-73
2024/04/05 00:28:57;;;;;;;2.60;1.10;;;;;;;13.20;100.00;96281.00;5017344;28;20250;-72
2024/04/05 00:31:22;;;;;;;1.97;1.20;;;;;;;13.09;100.00;96278.06;5016087;28;20288;-72
2024/04/05 00:33:49;;;;;;;2.67;1.30;;;;;;;13.19;100.00;96268.78;5016633;28;20443;-72
2024/04/05 00:36:15;;;;;;;1.43;1.20;;;;;;;13.17;100.00;96273.44;5017923;28;20209;-73
2024/04/05 00:38:41;;;;;;;1.97;1.17;;;;;;;13.20;100.00;96272.22;5016422;28;20707;-73
2024/04/05 00:41:07;;;;;;;2.80;1.40;;;;;;;13.13;100.00;96279.31;5015995;28;20245;-72
2024/04/05 00:43:35;;;;;;;1.97;1.20;;;;;;;13.29;100.00;96279.00;5015977;28;20208;-72
2024/04/05 00:46:03;;;;;;;1.57;1.30;;;;;;;13.29;100.00;96285.13;5023352;28;20492;-73
2024/04/05 00:48:31;;;;;;;1.30;1.10;;;;;;;13.19;100.00;96276.72;5016593;28;20530;-69
2024/04/05 00:50:57;;;;;;;2.10;1.50;;;;;;;13.23;100.00;96274.50;5016730;28;20236;-72
2024/04/05 00:53:26;;;;;;;4.30;1.87;;;;;;;13.36;100.00;96261.38;5016539;28;20222;-70
2024/04/05 00:55:53;;;;;;;5.00;1.60;;;;;;;13.23;100.00;96259.44;5016809;28;20206;-73
2024/04/05 00:58:21;;;;;;;3.77;1.60;;;;;;;13.25;100.00;96269.81;5016631;28;20205;-71
2024/04/05 01:00:48;;;;;;;4.47;1.60;;;;;;;13.23;100.00;96274.50;5021787;28;20225;-69
2024/04/05 01:03:15;;;;;;;1.30;1.07;;;;;;;13.03;100.00;96269.03;5016950;28;20301;-71
2024/04/05 01:05:41;;;;;;;3.30;1.60;;;;;;;13.14;100.00;96270.38;5016327;28;20361;-73
2024/04/05 01:08:10;;;;;;;2.70;1.50;;;;;;;13.18;100.00;96272.41;5022377;28;20236;-72
2024/04/05 01:10:35;;;;;;;1.53;1.20;;;;;;;13.07;100.00;96277.41;5016215;28;20225;-73
2024/04/05 01:13:03;;;;;;;2.53;1.40;;;;;;;13.14;100.00;96278.31;5015671;28;20236;-69
2024/04/05 01:15:29;;;;;;;1.63;1.07;;;;;;;13.04;100.00;96283.09;5023632;28;20202;-72
2024/04/05 01:17:59;;;;;;;3.10;1.27;;;;;;;13.22;100.00;96284.25;5016731;28;20220;-71
2024/04/05 01:20:26;;;;;;;3.60;1.17;;;;;;;13.15;100.00;96283.41;5017889;28;20603;-73
2024/04/05 01:22:54;;;;;;;1.63;1.20;;;;;;;13.04;100.00;96280.44;5016065;28;20624;-71
2024/04/05 01:25:21;;;;;;;2.57;1.33;;;;;;;13.22;100.00;96278.16;5016461;28;20210;-72
2024/04/05 01:27:48;;;;;;;1.47;1.30;;;;;;;13.13;100.00;96274.00;5016064;28;20206;-71
2024/04/05 01:30:13;;;;;;;4.27;1.60;;;;;;;13.00;100.00;96279.19;5016061;28;20320;-72
2024/04/05 01:32:40;;;;;;;2.47;1.30;;;;;;;13.00;100.00;96273.91;5016255;28;20781;-71
2024/04/05 01:35:06;;;;;;;2.17;1.50;;;;;;;12.97;100.00;96276.91;5016325;28;20362;-72
2024/04/05 01:37:32;;;;;;;4.93;1.60;;;;;;;12.75;100.00;96287.69;5016601;28;20205;-72
2024/04/05 01:39:58;;;;;;;4.53;1.63;;;;;;;12.92;100.00;96271.41;5017710;28;20233;-73
2024/04/05 01:42:26;;;;;;;4.67;1.97;;;;;;;13.20;100.00;96269.56;5016235;28;20228;-73
2024/04/05 01:44:51;;;;;;;2.00;1.40;;;;;;;12.85;100.00;96275.78;5016562;28;20198;-70
2024/04/05 01:47:18;;;;;;;1.53;1.33;;;;;;;13.00;100.00;96269.44;5020259;28;20232;-73
2024/04/05 01:49:43;;;;;;;2.30;1.57;;;;;;;13.01;100.00;96270.25;5019157;28;20221;-69
2024/04/05 01:52:10;;;;;;;3.80;1.50;;;;;;;13.12;100.00;96267.06;5022121;28;20217;-73
2024/04/05 01:54:36;;;;;;;2.00;1.40;;;;;;;12.75;100.00;96269.16;5019678;28;20789;-73
2024/04/05 01:57:02;;;;;;;1.90;1.33;;;;;;;12.97;100.00;96263.69;5020536;28;20202;-71
2024/04/05 01:59:30;;;;;;;1.90;1.47;;;;;;;13.15;100.00;96258.75;5018995;28;20283;-72
2024/04/05 02:01:56;;;;;;;4.77;1.53;;;;;;;13.03;100.00;96262.94;5020213;28;20216;-73
2024/04/05 02:04:22;;;;;;;2.87;1.50;;;;;;;13.06;100.00;96260.75;5020312;28;20206;-73
2024/04/05 02:06:48;;;;;;;2.57;1.50;;;;;;;13.05;100.00;96271.50;5019613;28;20656;-73
2024/04/05 02:09:14;;;;;;;4.57;1.80;;;;;;;13.03;100.00;96268.22;5018800;28;20232;-71
2024/04/05 02:11:40;;;;;;;2.43;1.70;;;;;;;13.09;100.00;96262.19;5023942;28;20205;-73
2024/04/05 02:14:06;;;;;;;2.73;1.70;;;;;;;13.08;100.00;96258.69;5019392;28;20226;-71
2024/04/05 02:16:34;;;;;;;8.50;2.10;;;;;;;13.16;100.00;96253.28;5021206;28;20206;-73
2024/04/05 02:18:59;;;;;;;3.83;1.73;;;;;;;13.05;100.00;96256.44;5023029;28;20202;-73
2024/04/05 02:21:26;;;;;;;3.67;2.53;;;;;;;13.05;100.00;96255.63;5018550;28;20913;-72
2024/04/05 02:23:51;;;;;;;5.40;2.50;;;;;;;13.01;100.00;96249.91;5018697;28;20201;-70
2024/04/05 02:26:18;;;;;;;6.43;2.80;;;;;;;13.05;100.00;96253.00;5018769;28;20205;-73
2024/04/05 02:28:44;;;;;;;6.80;3.50;;;;;;;13.04;100.00;96248.72;5019363;28;20202;-73
2024/04/05 02:31:10;;;;;;;4.83;2.93;;;;;;;13.02;100.00;96240.13;5018149;28;20252;-70
2024/04/05 02:33:37;;;;;;;6.03;3.10;;;;;;;13.08;100.00;96245.47;5019316;28;20233;-73
2024/04/05 02:36:05;;;;;;;5.73;2.30;;;;;;;13.09;100.00;96249.75;5019886;28;20475;-71
2024/04/05 02:38:30;;;;;;;7.57;2.70;;;;;;;13.09;100.00;96247.13;5023292;28;20485;-70
2024/04/05 02:40:57;;;;;;;3.00;1.97;;;;;;;13.07;100.00;96249.16;5018194;28;20229;-73
2024/04/05 02:43:23;;;;;;;3.03;1.67;;;;;;;13.06;100.00;96246.66;5020512;28;20202;-72
2024/04/05 02:45:49;;;;;;;3.83;2.00;;;;;;;13.05;100.00;96245.06;5019568;28;20213;-74
2024/04/05 02:48:15;;;;;;;2.47;1.83;;;;;;;13.09;100.00;96251.59;5026767;28;20216;-70
2024/04/05 02:50:43;;;;;;;4.53;1.50;;;;;;;13.19;100.00;96255.53;5027068;28;20217;-70
2024/04/05 02:53:08;;;;;;;3.27;1.50;;;;;;;13.03;100.00;96249.72;5025144;28;20758;-73
2024/04/05 02:55:35;;;;;;;1.83;1.33;;;;;;;13.15;100.00;96256.94;5026092;28;20205;-73
2024/04/05 02:58:00;;;;;;;3.07;1.83;;;;;;;13.11;100.00;96260.97;5025012;28;20205;-73
2024/04/05 03:00:27;;;;;;;3.97;2.03;;;;;;;13.10;100.00;96259.34;5026221;28;20718;-73
2024/04/05 03:02:53;;;;;;;3.53;1.90;;;;;;;13.10;100.00;96263.81;5024544;28;20604;-70
2024/04/05 03:05:19;;;;;;;3.10;1.80;;;;;;;13.05;100.00;96258.28;5027661;28;20220;-69
2024/04/05 03:07:46;;;;;;;3.30;1.97;;;;;;;13.17;100.00;96251.44;5028080;28;20209;-72
2024/04/05 03:10:13;;;;;;;2.83;1.50;;;;;;;13.04;100.00;96256.66;5022575;28;20257;-73
2024/04/05 03:12:38;;;;;;;3.73;2.00;;;;;;;13.01;100.00;96254.38;5019369;28;20240;-73
2024/04/05 03:15:05;;;;;;;5.23;2.00;;;;;;;13.08;100.00;96248.13;5019826;28;20589;-73
2024/04/05 03:17:31;;;;;;;3.33;1.70;;;;;;;13.06;100.00;96257.25;5018373;28;20209;-72
2024/04/05 03:19:57;;;;;;;6.17;2.07;;;;;;;13.10;100.00;96254.03;5020943;28;20234;-73
2024/04/05 03:22:23;;;;;;;5.80;2.10;;;;;;;13.05;100.00;96258.28;5018044;28;20216;-72
2024/04/05 03:24:51;;;;;;;4.10;1.90;;;;;;;13.17;100.00;96251.44;5018680;28;20198;-70
2024/04/05 03:27:16;;;;;;;7.87;2.13;;;;;;;13.04;100.00;96246.06;5017681;28;20572;-73
2024/04/05 03:29:43;;;;;;;4.27;1.50;;;;;;;13.03;100.00;96249.72;5020989;28;20221;-73
2024/04/05 03:32:09;;;;;;;3.77;1.90;;;;;;;13.02;100.00;96251.56;5018592;28;20205;-72
2024/04/05 03:34:36;;;;;;;3.50;1.67;;;;;;;13.01;100.00;96254.38;5018956;28;20230;-72
2024/04/05 03:37:02;;;;;;;3.13;1.90;;;;;;;12.97;100.00;96251.31;5017852;28;20210;-72
2024/04/05 03:39:29;;;;;;;2.50;1.40;;;;;;;12.91;100.00;96260.00;5017672;28;20229;-72
2024/04/05 03:41:57;;;;;;;2.33;1.50;;;;;;;13.06;100.00;96247.50;5022787;28;20213;-71
2024/04/05 03:44:22;;;;;;;4.40;1.63;;;;;;;12.77;100.00;96249.47;5019114;28;20228;-73
2024/04/05 03:46:49;;;;;;;4.00;1.80;;;;;;;12.86;100.00;96246.50;5018738;28;20197;-70
2024/04/05 03:49:14;;;;;;;5.17;1.87;;;;;;;12.79;100.00;96250.06;5017295;28;20229;-73
2024/04/05 03:51:41;;;;;;;3.03;1.70;;;;;;;12.86;100.00;96251.00;5018591;28;20210;-71
2024/04/05 03:54:06;;;;;;;3.03;1.60;;;;;;;12.88;100.00;96239.22;5018716;28;20232;-69
2024/04/05 03:56:33;;;;;;;1.90;1.47;;;;;;;12.83;100.00;96254.00;5018891;28;20210;-73
2024/04/05 03:59:00;;;;;;;3.30;1.50;;;;;;;12.91;100.00;96248.59;5021258;28;20216;-73
2024/04/05 04:01:26;;;;;;;2.17;1.30;;;;;;;12.80;100.00;96241.13;5017554;28;20210;-73
2024/04/05 04:03:52;;;;;;;2.43;1.30;;;;;;;12.83;100.00;96248.72;5018924;28;20198;-72
2024/04/05 04:06:19;;;;;;;3.27;1.80;;;;;;;12.83;100.00;96251.34;5017826;28;20206;-73
2024/04/05 04:08:44;;;;;;;1.90;1.53;;;;;;;12.79;100.00;96250.06;5017594;28;20208;-70
2024/04/05 04:11:11;;;;;;;1.83;1.33;;;;;;;12.74;100.00;96246.38;5017637;28;20329;-71
2024/04/05 04:13:36;;;;;;;2.27;1.17;;;;;;;12.72;100.00;96254.50;5017692;28;20225;-72
2024/04/05 04:16:05;;;;;;;3.53;1.97;;;;;;;12.85;100.00;96254.63;5023164;28;21079;-73
2024/04/05 04:18:31;;;;;;;1.93;1.63;;;;;;;12.69;100.00;96254.06;5018013;28;20312;-72
2024/04/05 04:20:57;;;;;;;3.50;1.50;;;;;;;12.68;100.00;96257.69;5016709;28;20723;-71
2024/04/05 04:23:23;;;;;;;1.73;1.50;;;;;;;12.61;100.00;96251.53;5017457;28;20704;-69
2024/04/05 04:25:50;;;;;;;2.40;1.57;;;;;;;12.67;100.00;96259.53;5019100;28;20198;-72
2024/04/05 04:28:16;;;;;;;2.80;1.50;;;;;;;12.55;100.00;96247.84;5017185;28;20312;-73
2024/04/05 04:30:45;;;;;;;2.03;1.50;;;;;;;12.46;100.00;96248.97;5017382;28;20733;-73
2024/04/05 04:33:13;;;;;;;3.00;1.77;;;;;;;12.47;100.00;96245.28;5018634;28;20229;-72
2024/04/05 04:35:39;;;;;;;2.77;1.40;;;;;;;12.33;100.00;96240.91;5017995;28;20781;-71
2024/04/05 04:38:05;;;;;;;2.50;1.50;;;;;;;12.27;100.00;96233.72;5016816;28;20202;-72
2024/04/05 04:40:31;;;;;;;2.67;1.50;;;;;;;12.30;100.00;96235.97;5020874;28;20283;-73
2024/04/05 04:42:57;;;;;;;4.07;2.00;;;;;;;12.25;100.00;96235.72;5017856;28;20197;-74
2024/04/05 04:45:23;;;;;;;5.47;2.27;;;;;;;12.22;100.00;96222.88;5017626;28;20587;-73
2024/04/05 04:47:49;;;;;;;2.43;1.60;;;;;;;12.22;100.00;96214.16;5017983;28;20204;-73
2024/04/05 04:50:17;;;;;;;4.47;2.20;;;;;;;12.37;100.00;96221.03;5021241;28;20225;-73
2024/04/05 04:52:42;;;;;;;3.57;2.17;;;;;;;12.21;100.00;96218.59;5017561;28;20206;-72
2024/04/05 04:55:10;;;;;;;7.00;4.00;;;;;;;12.21;100.00;96223.09;5017892;28;20695;-73
2024/04/05 04:57:36;;;;;;;11.27;4.50;;;;;;;12.22;100.00;96222.88;5017958;28;20210;-73
2024/04/05 05:00:02;;;;;;;4.77;2.83;;;;;;;12.21;100.00;96226.53;5016326;28;20229;-71
2024/04/05 05:02:28;;;;;;;5.43;2.87;;;;;;;12.24;100.00;96230.63;5017819;28;20216;-74
2024/04/05 05:04:54;;;;;;;5.90;2.93;;;;;;;12.22;100.00;96236.09;5017891;28;20563;-71
2024/04/05 05:07:21;;;;;;;4.83;2.83;;;;;;;12.39;100.00;96234.84;5017575;28;20201;-71
2024/04/05 05:09:48;;;;;;;4.93;1.87;;;;;;;12.29;100.00;96236.97;5016732;28;20221;-74
2024/04/05 05:12:13;;;;;;;10.30;2.17;;;;;;;12.27;100.00;96239.00;5017692;28;20288;-74
2024/04/05 05:14:40;;;;;;;4.43;2.13;;;;;;;12.33;100.00;96242.72;5018706;28;20221;-74
2024/04/05 05:17:05;;;;;;;13.03;4.33;;;;;;;12.42;100.00;96246.88;5017504;28;20213;-72
2024/04/05 05:19:32;;;;;;;12.17;4.77;;;;;;;12.52;100.00;96253.47;5018002;28;20229;-74
2024/04/05 05:21:57;;;;;;;5.47;1.87;;;;;;;12.42;100.00;96257.44;5027832;28;20229;-70
2024/04/05 05:24:25;;;;;;;1.50;1.20;;;;;;;12.62;100.00;96261.91;5021067;28;20201;-73
2024/04/05 05:26:51;;;;;;;2.60;1.50;;;;;;;12.43;100.00;96259.91;5022783;28;20701;-73
2024/04/05 05:29:18;;;;;;;3.70;2.00;;;;;;;12.49;100.00;96253.88;5020941;28;20304;-71
2024/04/05 05:31:43;;;;;;;2.87;1.90;;;;;;;12.51;100.00;96256.31;5021080;28;20260;-74
2024/04/05 05:34:10;;;;;;;2.57;1.70;;;;;;;12.56;100.00;96254.72;5020997;28;20308;-73
2024/04/05 05:36:35;;;;;;;3.10;1.60;;;;;;;12.60;100.00;96263.13;5021145;28;20577;-74
2024/04/05 05:39:03;;;;;;;2.17;1.20;;;;;;;12.59;100.00;96258.81;5021505;28;20218;-74
2024/04/05 05:41:29;;;;;;;2.70;1.83;;;;;;;12.78;100.00;96259.03;5020798;28;20202;-71
2024/04/05 05:43:56;;;;;;;3.40;1.73;;;;;;;12.70;100.00;96253.84;5020901;28;20205;-74
2024/04/05 05:46:22;;;;;;;2.90;1.50;;;;;;;12.68;100.00;96258.53;5020426;28;20216;-74
2024/04/05 05:48:49;;;;;;;1.87;1.33;;;;;;;12.71;100.00;96258.16;5021470;28;20205;-71
2024/04/05 05:51:14;;;;;;;3.67;1.53;;;;;;;12.65;100.00;96258.09;5019308;28;20229;-73
2024/04/05 05:53:41;;;;;;;3.57;1.57;;;;;;;12.59;100.00;96264.94;5024485;28;20229;-73
2024/04/05 05:56:07;;;;;;;2.10;1.47;;;;;;;12.67;100.00;96261.38;5020544;28;20987;-71
2024/04/05 05:58:35;;;;;;;1.60;1.13;;;;;;;12.79;100.00;96263.28;5020773;28;20205;-74
2024/04/05 06:01:05;;;;;;;3.87;1.70;;;;;;;12.90;100.00;96265.47;5023619;28;20232;-73
2024/04/05 06:03:32;;;;;;;3.10;1.93;;;;;;;12.63;100.00;96260.13;5020798;28;20553;-74
2024/04/05 06:05:57;;;;;;;4.40;2.20;;;;;;;12.68;100.00;96262.97;5019932;28;20213;-70
2024/04/05 06:08:24;;;;;;;3.10;1.77;;;;;;;12.72;100.00;96265.06;5021635;28;20208;-72
2024/04/05 06:10:56;;;;;;;2.87;1.73;;;;;;;12.99;100.00;96270.44;5019989;28;20229;-73
2024/04/05 06:13:23;;;;;;;3.67;2.03;;;;;;;12.77;100.00;96274.06;5021168;28;20222;-72
2024/04/05 06:15:54;;;;;;;2.27;1.60;;;;;;;12.98;100.00;96265.34;5024680;28;20205;-73
2024/04/05 06:18:21;;;;;;;3.27;1.57;;;;;;;12.76;100.00;96262.88;5023006;28;20201;-71
2024/04/05 06:20:51;;;;;;;2.33;1.50;;;;;;;13.00;100.00;96273.91;5020347;28;20222;-73
2024/04/05 06:23:18;;;;;;;2.07;1.37;;;;;;;12.76;100.00;96276.91;5021443;28;20289;-74
2024/04/05 06:25:50;;;;;;;3.13;1.53;;;;;;;13.00;100.00;96279.19;5021158;28;20212;-70
2024/04/05 06:28:17;;;;;;;2.60;1.90;;;;;;;12.81;100.00;96280.63;5019983;28;20222;-74
2024/04/05 06:30:44;;;;;;;2.23;1.33;;;;;;;12.80;100.00;96279.00;5018994;28;20257;-71
2024/04/05 06:33:11;;;;;;;2.00;1.50;;;;;;;12.96;100.00;96285.88;5019716;28;20217;-74
2024/04/05 06:35:38;;;;;;;2.80;1.60;;;;;;;12.82;100.00;96289.38;5020600;28;20745;-72
2024/04/05 06:38:04;;;;;;;2.47;1.60;;;;;;;12.90;100.00;96294.56;5020561;28;20206;-72
2024/04/05 06:40:30;;;;;;;2.67;1.57;;;;;;;12.90;100.00;96294.56;5022510;28;20225;-72
2024/04/05 06:42:56;;;;;;;1.87;1.50;;;;;;;12.96;100.00;96293.81;5020372;28;20210;-73
2024/04/05 06:45:23;;;;;;;2.83;1.40;;;;;;;13.13;100.00;96289.88;5020287;28;20222;-74
2024/04/05 06:47:49;;;;;;;4.77;1.40;;;;;;;13.26;100.00;96280.22;5019444;28;20981;-74
2024/04/05 06:50:17;;;;;;;2.77;1.90;;;;;;;13.49;100.00;96278.97;5019757;28;20227;-74
2024/04/05 06:52:42;;;;;;;4.43;1.67;;;;;;;13.52;100.00;96281.22;5020356;28;20202;-74
2024/04/05 06:55:09;;;;;;;3.33;2.13;;;;;;;13.66;100.00;96275.00;5019822;28;20236;-74
2024/04/05 06:57:35;;;;;;;2.87;1.93;;;;;;;13.84;100.00;96275.31;5019809;28;20593;-74
2024/04/05 07:00:02;;;;;;;5.97;3.00;;;;;;;13.95;100.00;96279.22;5022239;28;20232;-74
2024/04/05 07:02:28;;;;;;;5.10;2.80;;;;;;;13.96;100.00;96281.69;5022291;28;20205;-71
2024/04/05 07:04:54;;;;;;;5.23;2.50;;;;;;;14.31;100.00;96283.31;5018732;28;21102;-72
2024/04/05 07:07:21;;;;;;;4.90;2.10;;;;;;;14.70;100.00;96284.22;5017110;28;20206;-72
2024/04/05 07:09:48;;;;;;;6.20;2.33;;;;;;;14.42;100.00;96286.22;5019449;28;20253;-73
2024/04/05 07:12:13;;;;;;;2.35;1.92;;;;;;;14.62;100.00;96287.06;5018740;28;20210;-73
2024/04/05 07:14:40;;;;;;;4.65;2.10;;;;;;;14.81;100.00;96278.34;5018802;28;20261;-72
2024/04/05 07:17:08;;;;;;;4.78;2.17;;;;;;;14.95;100.00;96286.09;5017370;28;20216;-71
2024/04/05 07:19:34;;;;;;;3.13;1.83;;;;;;;15.04;100.00;96279.56;5017251;28;20225;-70
2024/04/05 07:22:00;;;;;;;7.47;2.15;;;;;;;14.86;100.00;96273.25;5018734;28;20206;-71
2024/04/05 07:24:28;;;;;;;2.70;1.48;;;;;;;15.27;100.00;96264.94;5018993;28;20212;-71
2024/04/05 07:26:53;;;;;;;4.63;1.98;;;;;;;15.35;100.00;96277.16;5019819;28;20579;-74
2024/04/05 07:29:20;;;;;;;2.47;1.58;;;;;;;15.44;100.00;96268.78;5017084;28;20226;-72
2024/04/05 07:31:48;;;;;;;4.30;1.95;;;;;;;15.61;100.00;96261.22;5018771;28;20213;-70
2024/04/05 07:34:15;;;;;;;3.47;2.05;;;;;;;15.86;100.00;96263.81;5018552;28;20222;-71
2024/04/05 07:36:41;;;;;;;2.58;1.40;;;;;;;15.73;100.00;96263.00;5019410;28;20202;-73
2024/04/05 07:39:08;;;;;;;6.28;1.67;;;;;;;15.96;100.00;96258.03;5017646;28;20210;-72
2024/04/05 07:41:35;;;;;;;3.55;1.60;;;;;;;16.12;100.00;96257.59;5018874;28;20198;-72
2024/04/05 07:44:02;;;;;;;4.05;1.60;;;;;;;16.03;100.00;96256.19;5017479;28;20230;-74
2024/04/05 07:46:27;;;;;;;3.45;1.40;;;;;;;16.15;100.00;96251.84;5017608;28;20252;-72
2024/04/05 07:48:54;;;;;;;2.25;1.30;;;;;;;16.00;100.00;96252.13;5019262;28;20206;-72
2024/04/05 07:51:20;;;;;;;2.47;1.33;;;;;;;16.25;100.00;96258.34;5017891;28;20197;-73
2024/04/05 07:53:47;;;;;;;3.53;1.92;;;;;;;16.40;100.00;96256.28;5020516;28;20237;-71
2024/04/05 07:56:12;;;;;;;2.35;1.65;;;;;;;16.56;100.00;96261.13;5021658;28;20212;-71
2024/04/05 07:58:41;;;;;;;2.88;1.52;;;;;;;16.48;100.00;96266.66;5020014;28;20202;-72
2024/04/05 08:01:07;;;;;;;2.85;1.63;;;;;;;16.28;100.00;96267.78;5017793;28;20237;-71
2024/04/05 08:03:36;;;;;;;2.20;1.30;;;;;;;16.25;100.00;96274.31;5018989;28;20206;-71
2024/04/05 08:06:02;;;;;;;1.70;1.30;;;;;;;16.44;100.00;96272.63;5018260;28;20206;-72
2024/04/05 08:08:29;;;;;;;2.30;1.20;;;;;;;16.34;100.00;96274.91;5018309;28;20266;-72
2024/04/05 08:11:01;;;;;;;3.75;1.85;;;;;;;16.78;100.00;96281.03;5016955;28;21038;-73
2024/04/05 08:13:28;;;;;;;1.88;1.17;;;;;;;16.27;100.00;96276.81;5018529;28;20206;-71
2024/04/05 08:15:56;;;;;;;1.70;1.00;;;;;;;16.98;100.00;96271.06;5018131;28;20205;-73
2024/04/05 08:18:22;;;;;;;1.55;1.13;;;;;;;16.64;100.00;96268.84;5017857;28;20206;-70
2024/04/05 08:20:48;;;;;;;3.75;1.42;;;;;;;16.74;100.00;96270.00;5017058;28;20228;-71
2024/04/05 08:23:14;;;;;;;1.65;1.10;;;;;;;16.84;100.00;96274.84;5018610;28;20202;-72
2024/04/05 08:25:40;;;;;;;4.00;1.20;;;;;;;16.97;100.00;96272.94;5019658;28;20194;-71
2024/04/05 08:28:07;;;;;;;3.60;1.27;;;;;;;17.20;100.00;96275.84;5020313;28;20206;-72
2024/04/05 08:30:32;;;;;;;3.95;1.60;;;;;;;17.14;100.00;96282.00;5019412;28;20307;-71
2024/04/05 08:33:00;;;;;;;2.22;1.10;;;;;;;17.31;100.00;96283.13;5018424;28;20260;-71
2024/04/05 08:35:27;;;;;;;2.33;1.30;;;;;;;16.96;100.00;96286.47;5019279;28;20223;-72
2024/04/05 08:38:00;;;;;;;1.38;1.00;;;;;;;17.41;100.00;96278.97;5017990;28;20676;-73
2024/04/05 08:40:28;;;;;;;1.60;1.10;;;;;;;17.10;100.00;96276.31;5016211;28;20230;-72
2024/04/05 08:42:59;;;;;;;1.65;1.10;;;;;;;17.63;100.00;96276.72;5018257;28;20295;-72
2024/04/05 08:45:30;;;;;;;2.20;0.90;;;;;;;17.81;100.00;96272.25;5017483;28;20194;-73
2024/04/05 08:47:57;;;;;;;5.60;1.00;;;;;;;17.94;100.00;96275.56;5020141;28;20607;-72
2024/04/05 08:50:28;;;;;;;1.90;1.00;;;;;;;17.89;100.00;96272.75;5021242;28;20769;-72
2024/04/05 08:52:54;;;;;;;1.27;0.82;;;;;;;17.37;100.00;96271.63;5018198;28;20202;-73
2024/04/05 08:55:21;;;;;;;1.45;0.85;;;;;;;17.77;100.00;96261.19;5022739;28;20240;-71
2024/04/05 08:57:47;;;;;;;1.00;0.80;;;;;;;18.00;100.00;96255.25;5024266;28;20201;-73
2024/04/05 09:00:23;;;;;;;2.45;1.02;;;;;;;18.20;100.00;96247.84;5024621;28;20225;-71
2024/04/05 09:02:51;;;;;;;1.88;0.90;;;;;;;18.28;100.00;96251.03;5022123;28;20205;-72
2024/04/05 09:05:19;;;;;;;2.17;0.88;;;;;;;18.01;96.52;96264.84;5022884;28;20197;-71
2024/04/05 09:07:46;;;;;;;1.80;0.80;;;;;;;18.23;98.69;96263.38;5023389;28;20204;-72
2024/04/05 09:10:14;;;;;;;1.50;1.00;;;;;;;18.23;96.69;96258.06;5022671;28;20229;-71
2024/04/05 09:12:49;;;;;;;1.33;0.85;;;;;;;18.55;96.64;96263.81;5023145;28;20673;-71
2024/04/05 09:15:19;;;;;;;3.42;0.88;;;;;;;18.62;97.22;96259.22;5024198;28;20221;-72
2024/04/05 09:17:45;;;;;;;3.63;1.40;;;;;;;18.52;100.00;96261.59;5023432;28;20217;-71
2024/04/05 09:20:16;;;;;;;1.13;0.70;;;;;;;18.50;99.67;96263.66;5028240;28;20229;-72
2024/04/05 09:22:43;;;;;;;1.25;0.90;;;;;;;18.77;100.00;96267.59;5024041;28;20224;-72
2024/04/05 09:25:12;;;;;;;1.15;0.80;;;;;;;19.06;98.15;96259.59;5024153;28;20251;-73
2024/04/05 09:27:38;;;;;;;1.33;0.90;;;;;;;18.93;98.98;96261.63;5023774;28;20198;-72
2024/04/05 09:30:08;;;;;;;1.42;1.00;;;;;;;19.40;93.10;96247.34;5021313;28;21130;-72
2024/04/05 09:32:35;;;;;;;2.15;0.95;;;;;;;19.25;96.11;96245.13;5023613;28;20205;-73
2024/04/05 09:35:02;;;;;;;1.20;0.75;;;;;;;19.60;93.26;96248.66;5023689;28;20232;-73
2024/04/05 09:37:28;;;;;;;4.60;1.08;;;;;;;19.61;93.39;96256.47;5023720;28;20547;-72
2024/04/05 09:39:55;;;;;;;1.95;0.90;;;;;;;19.37;94.07;96258.50;5022631;28;20244;-73
2024/04/05 09:42:27;;;;;;;1.52;0.70;;;;;;;19.74;94.49;96250.03;5026227;28;20198;-72
2024/04/05 09:44:55;;;;;;;1.17;0.70;;;;;;;19.72;96.72;96247.59;5024699;28;20554;-72
2024/04/05 09:47:22;;;;;;;1.10;0.50;;;;;;;19.99;92.38;96247.97;5024046;28;20252;-73
2024/04/05 09:49:49;;;;;;;0.90;0.88;;;;;;;19.78;93.93;96249.34;5026153;28;20230;-72
2024/04/05 09:52:20;;;;;;;1.70;0.90;;;;;;;20.49;91.08;96241.81;5024829;28;20303;-73
2024/04/05 09:54:53;;;;;;;0.77;0.70;;;;;;;20.34;88.33;96242.31;5024139;28;20944;-73
2024/04/05 09:57:18;;;;;;;0.93;0.55;;;;;;;20.24;89.17;96241.31;5028939;28;20216;-71
2024/04/05 09:59:49;;;;;;;1.98;0.80;;;;;;;20.29;89.11;96244.09;5028452;28;20224;-72
2024/04/05 10:02:17;;;;;;;1.33;0.50;;;;;;;20.35;86.84;96237.78;5024985;28;20212;-73
2024/04/05 10:04:44;;;;;;;1.50;0.70;;;;;;;20.42;89.29;96243.81;5024412;28;21311;-73
2024/04/05 10:07:11;;;;;;;2.00;0.95;;;;;;;20.76;88.01;96240.22;5019389;28;20198;-71
2024/04/05 10:09:39;;;;;;;2.70;1.25;;;;;;;20.55;86.13;96239.00;5019157;28;20232;-72
2024/04/05 10:12:11;;;;;;;6.45;1.35;;;;;;;20.96;82.69;96250.28;5020570;28;20271;-73
2024/04/05 10:14:38;;;;;;;0.73;0.60;;;;;;;21.02;82.24;96249.28;5021949;28;20233;-72
2024/04/05 10:17:09;;;;;;;0.68;0.40;;;;;;;21.09;78.27;96241.09;5020565;28;20201;-71
2024/04/05 10:19:37;;;;;;;3.40;0.77;;;;;;;21.09;76.86;96247.28;5019601;28;20311;-73
2024/04/05 10:22:04;;;;;;;0.63;0.60;;;;;;;21.06;77.63;96231.69;5020783;28;20210;-73
2024/04/05 10:24:30;;;;;;;1.90;0.40;;;;;;;21.39;80.92;96231.72;5019345;28;20209;-72
2024/04/05 10:26:56;;;;;;;2.20;0.63;;;;;;;21.72;76.25;96223.69;5022589;28;20208;-72
2024/04/05 10:29:25;;;;;;;2.63;0.50;;;;;;;21.93;67.75;96230.97;5018930;28;20221;-73
2024/04/05 10:31:59;;;;;;;2.05;0.50;;;;;;;22.12;68.46;96217.84;5019830;28;20202;-73
2024/04/05 10:34:27;;;;;;;2.53;0.55;;;;;;;22.32;64.36;96211.94;5018998;28;21081;-71
2024/04/05 10:36:53;;;;;;;0.57;0.40;;;;;;;22.04;62.22;96208.59;5022641;28;20284;-73
2024/04/05 10:39:20;;;;;;;0.55;0.40;;;;;;;22.36;60.91;96208.47;5019817;28;20348;-72
2024/04/05 10:41:45;;;;;;;0.50;0.50;;;;;;;22.59;59.83;96207.41;5019557;28;21094;-71
2024/04/05 10:44:13;;;;;;;0.43;0.40;;;;;;;22.72;58.98;96199.75;5019333;28;20198;-73
2024/04/05 10:46:39;;;;;;;0.63;0.50;;;;;;;22.27;59.64;96209.19;5020175;28;20284;-72
2024/04/05 10:49:15;;;;;;;2.55;0.40;;;;;;;22.82;61.11;96197.19;5021423;28;20245;-71
2024/04/05 10:51:43;;;;;;;1.00;0.43;;;;;;;23.40;59.40;96192.66;5019352;28;20205;-73
2024/04/05 10:54:10;;;;;;;5.28;0.40;;;;;;;23.52;56.12;96186.03;5019788;28;20320;-73
2024/04/05 10:56:39;;;;;;;0.30;0.30;;;;;;;23.47;58.35;96185.16;5019062;28;20216;-73
2024/04/05 10:59:06;;;;;;;1.05;0.40;;;;;;;23.88;56.38;96187.91;5020136;28;20201;-72
2024/04/05 11:01:34;;;;;;;0.82;0.40;;;;;;;23.73;57.05;96174.34;5023626;28;20202;-72
2024/04/05 11:04:01;;;;;;;0.43;0.43;;;;;;;23.84;56.64;96165.28;5023680;28;20208;-72
2024/04/05 11:06:26;;;;;;;0.32;0.32;;;;;;;24.05;56.66;96169.69;5021373;28;20691;-73
2024/04/05 11:08:55;;;;;;;1.05;0.43;;;;;;;24.25;54.52;96167.91;5019816;28;20446;-73
2024/04/05 11:11:20;;;;;;;1.45;0.43;;;;;;;24.16;54.52;96166.78;5022052;28;20656;-73
2024/04/05 11:13:47;;;;;;;1.17;0.30;;;;;;;23.84;53.28;96167.97;5019646;28;20206;-73
2024/04/05 11:16:15;;;;;;;0.73;0.38;;;;;;;23.73;52.02;96157.41;5020612;28;20229;-73
2024/04/05 11:18:42;;;;;;;0.22;0.20;;;;;;;23.23;51.02;96150.81;5021383;28;20198;-72
2024/04/05 11:21:13;;;;;;;1.02;0.40;;;;;;;24.04;50.08;96144.66;5019515;28;20235;-72
2024/04/05 11:23:48;;;;;;;0.47;0.40;;;;;;;24.35;51.76;96146.41;5019066;28;20694;-73
2024/04/05 11:26:20;;;;;;;0.63;0.30;;;;;;;24.45;49.75;96141.06;5020653;28;20204;-73